KBNA

Nashville International Airport

Nashville, Tennessee, USA
METAR KBNA 221453Z 18007KT 10SM SCT025 SCT200 BKN250 27/19 A3010 RMK AO2 SLP184 T02670194 51004
Observed Flight Rules
May-22 @ 14:53 UTC (31 minutes ago) Visual Flight Rules
Wind Visibility Clouds
180° at 7 knots 10 miles
  • Scattered at 2,500' AGL
  • Scattered at 20,000' AGL
  • Broken at 25,000' AGL
Temperatures Readings
Current 27°C / 81°F
Dewpoint 19°C / 66°F
Humidity 62%
Altimeter 30.1" Hg
Pressure 1018.4 hPa
Elevation 210
METAR KBNA 221453Z 18007KT 10SM SCT025 SCT200 BKN250 27/19 A3010 RMK AO2 SLP184 T02670194 51004
Observed Flight Rules
May-22 @ 14:53 UTC
(31 minutes ago)
VFR
Wind Visibility
180° at 7 knots 10 miles
Clouds
  • Scattered at 2,500' AGL
  • Scattered at 20,000' AGL
  • Broken at 25,000' AGL
Temperature Dewpoint
27°C / 81°F 19°C / 66°F
Humidity Altimeter Pressure
62% 30.1" Hg 1018.4 hPa